sensor_id;sensor_type;location;lat;lon;timestamp;P1;durP1;ratioP1;P2;durP2;ratioP2
34060;SDS011;20336;-33.424;-70.638;2023-10-09T00:01:51;7.80;;;3.15;;
34060;SDS011;20336;-33.424;-70.638;2023-10-09T00:04:19;7.43;;;2.55;;
34060;SDS011;20336;-33.424;-70.638;2023-10-09T00:06:46;8.60;;;2.55;;
34060;SDS011;20336;-33.424;-70.638;2023-10-09T00:09:13;9.13;;;2.90;;
34060;SDS011;20336;-33.424;-70.638;2023-10-09T00:11:49;6.75;;;2.90;;
34060;SDS011;20336;-33.424;-70.638;2023-10-09T00:14:26;6.35;;;2.50;;
34060;SDS011;20336;-33.424;-70.638;2023-10-09T00:16:56;5.25;;;2.65;;
34060;SDS011;20336;-33.424;-70.638;2023-10-09T00:19:38;8.43;;;2.50;;
34060;SDS011;20336;-33.424;-70.638;2023-10-09T00:22:08;10.60;;;2.50;;
34060;SDS011;20336;-33.424;-70.638;2023-10-09T00:24:55;6.70;;;2.30;;
34060;SDS011;20336;-33.424;-70.638;2023-10-09T00:27:46;3.10;;;1.92;;
34060;SDS011;20336;-33.424;-70.638;2023-10-09T00:30:14;4.82;;;2.40;;
34060;SDS011;20336;-33.424;-70.638;2023-10-09T00:32:46;6.32;;;2.28;;
34060;SDS011;20336;-33.424;-70.638;2023-10-09T00:35:36;7.95;;;2.08;;
34060;SDS011;20336;-33.424;-70.638;2023-10-09T00:38:09;9.65;;;2.35;;
34060;SDS011;20336;-33.424;-70.638;2023-10-09T00:40:50;6.07;;;1.98;;
34060;SDS011;20336;-33.424;-70.638;2023-10-09T00:43:29;4.88;;;2.10;;
34060;SDS011;20336;-33.424;-70.638;2023-10-09T00:45:58;6.32;;;1.90;;
34060;SDS011;20336;-33.424;-70.638;2023-10-09T00:48:37;6.68;;;2.00;;
34060;SDS011;20336;-33.424;-70.638;2023-10-09T00:51:05;5.72;;;2.38;;
34060;SDS011;20336;-33.424;-70.638;2023-10-09T00:53:49;6.18;;;2.20;;
34060;SDS011;20336;-33.424;-70.638;2023-10-09T00:56:22;4.95;;;2.20;;
34060;SDS011;20336;-33.424;-70.638;2023-10-09T00:58:53;6.00;;;2.42;;
34060;SDS011;20336;-33.424;-70.638;2023-10-09T01:01:46;6.75;;;2.42;;
34060;SDS011;20336;-33.424;-70.638;2023-10-09T01:04:22;5.07;;;2.58;;
34060;SDS011;20336;-33.424;-70.638;2023-10-09T01:06:51;9.07;;;2.45;;
34060;SDS011;20336;-33.424;-70.638;2023-10-09T01:09:33;5.03;;;2.70;;
34060;SDS011;20336;-33.424;-70.638;2023-10-09T01:12:08;4.35;;;2.25;;
34060;SDS011;20336;-33.424;-70.638;2023-10-09T01:14:42;7.35;;;2.72;;
34060;SDS011;20336;-33.424;-70.638;2023-10-09T01:17:09;7.93;;;2.28;;
34060;SDS011;20336;-33.424;-70.638;2023-10-09T01:19:37;5.85;;;2.38;;
34060;SDS011;20336;-33.424;-70.638;2023-10-09T01:22:04;6.82;;;2.40;;
34060;SDS011;20336;-33.424;-70.638;2023-10-09T01:24:41;8.82;;;2.28;;
34060;SDS011;20336;-33.424;-70.638;2023-10-09T01:27:09;9.82;;;2.60;;
34060;SDS011;20336;-33.424;-70.638;2023-10-09T01:29:42;5.03;;;2.65;;
34060;SDS011;20336;-33.424;-70.638;2023-10-09T01:32:09;8.30;;;2.75;;
34060;SDS011;20336;-33.424;-70.638;2023-10-09T01:34:43;5.90;;;2.20;;
34060;SDS011;20336;-33.424;-70.638;2023-10-09T01:37:14;6.72;;;2.80;;
34060;SDS011;20336;-33.424;-70.638;2023-10-09T01:39:47;7.93;;;2.63;;
34060;SDS011;20336;-33.424;-70.638;2023-10-09T01:42:14;15.00;;;2.90;;
34060;SDS011;20336;-33.424;-70.638;2023-10-09T01:45:00;7.40;;;2.78;;
34060;SDS011;20336;-33.424;-70.638;2023-10-09T01:47:37;10.35;;;2.80;;
34060;SDS011;20336;-33.424;-70.638;2023-10-09T01:50:04;12.27;;;2.83;;
34060;SDS011;20336;-33.424;-70.638;2023-10-09T01:52:45;9.13;;;3.08;;
34060;SDS011;20336;-33.424;-70.638;2023-10-09T01:55:12;7.95;;;3.10;;
34060;SDS011;20336;-33.424;-70.638;2023-10-09T01:57:54;7.03;;;2.92;;
34060;SDS011;20336;-33.424;-70.638;2023-10-09T02:00:23;8.55;;;2.95;;
34060;SDS011;20336;-33.424;-70.638;2023-10-09T02:02:54;7.28;;;3.00;;
34060;SDS011;20336;-33.424;-70.638;2023-10-09T02:05:21;9.07;;;3.40;;
34060;SDS011;20336;-33.424;-70.638;2023-10-09T02:07:51;8.85;;;3.17;;
34060;SDS011;20336;-33.424;-70.638;2023-10-09T02:10:22;14.63;;;3.97;;
34060;SDS011;20336;-33.424;-70.638;2023-10-09T02:12:56;8.00;;;3.20;;
34060;SDS011;20336;-33.424;-70.638;2023-10-09T02:15:25;6.77;;;3.73;;
34060;SDS011;20336;-33.424;-70.638;2023-10-09T02:18:07;11.48;;;4.03;;
34060;SDS011;20336;-33.424;-70.638;2023-10-09T02:21:12;12.13;;;3.53;;
34060;SDS011;20336;-33.424;-70.638;2023-10-09T02:23:40;12.70;;;5.00;;
34060;SDS011;20336;-33.424;-70.638;2023-10-09T02:26:10;14.57;;;5.80;;
34060;SDS011;20336;-33.424;-70.638;2023-10-09T02:29:05;14.45;;;5.90;;
34060;SDS011;20336;-33.424;-70.638;2023-10-09T02:31:38;12.93;;;6.70;;
34060;SDS011;20336;-33.424;-70.638;2023-10-09T02:34:17;18.90;;;7.88;;
34060;SDS011;20336;-33.424;-70.638;2023-10-09T02:36:47;17.35;;;8.57;;
34060;SDS011;20336;-33.424;-70.638;2023-10-09T02:39:15;23.03;;;9.33;;
34060;SDS011;20336;-33.424;-70.638;2023-10-09T02:41:57;23.60;;;9.23;;
34060;SDS011;20336;-33.424;-70.638;2023-10-09T02:44:27;20.40;;;9.87;;
34060;SDS011;20336;-33.424;-70.638;2023-10-09T02:47:04;18.77;;;9.33;;
34060;SDS011;20336;-33.424;-70.638;2023-10-09T02:49:38;22.73;;;9.73;;
34060;SDS011;20336;-33.424;-70.638;2023-10-09T02:52:05;21.70;;;10.10;;
34060;SDS011;20336;-33.424;-70.638;2023-10-09T02:54:33;20.90;;;8.70;;
34060;SDS011;20336;-33.424;-70.638;2023-10-09T02:57:01;18.97;;;8.93;;
34060;SDS011;20336;-33.424;-70.638;2023-10-09T02:59:33;20.03;;;8.50;;
34060;SDS011;20336;-33.424;-70.638;2023-10-09T03:02:00;19.53;;;8.27;;
34060;SDS011;20336;-33.424;-70.638;2023-10-09T03:04:27;17.97;;;7.60;;
34060;SDS011;20336;-33.424;-70.638;2023-10-09T03:06:57;18.73;;;7.23;;
34060;SDS011;20336;-33.424;-70.638;2023-10-09T03:09:25;14.27;;;6.63;;
34060;SDS011;20336;-33.424;-70.638;2023-10-09T03:11:53;20.10;;;6.77;;
34060;SDS011;20336;-33.424;-70.638;2023-10-09T03:14:28;9.87;;;5.30;;
34060;SDS011;20336;-33.424;-70.638;2023-10-09T03:16:56;13.10;;;4.90;;
34060;SDS011;20336;-33.424;-70.638;2023-10-09T03:19:25;10.90;;;4.30;;
34060;SDS011;20336;-33.424;-70.638;2023-10-09T03:21:52;8.07;;;3.83;;
34060;SDS011;20336;-33.424;-70.638;2023-10-09T03:24:19;10.73;;;3.93;;
34060;SDS011;20336;-33.424;-70.638;2023-10-09T03:26:48;9.23;;;4.40;;
34060;SDS011;20336;-33.424;-70.638;2023-10-09T03:29:15;11.13;;;4.10;;
34060;SDS011;20336;-33.424;-70.638;2023-10-09T03:31:45;8.27;;;3.83;;
34060;SDS011;20336;-33.424;-70.638;2023-10-09T03:34:12;11.43;;;4.10;;
34060;SDS011;20336;-33.424;-70.638;2023-10-09T03:36:40;12.73;;;4.03;;
34060;SDS011;20336;-33.424;-70.638;2023-10-09T03:39:09;10.20;;;3.97;;
34060;SDS011;20336;-33.424;-70.638;2023-10-09T03:41:55;11.23;;;4.00;;
34060;SDS011;20336;-33.424;-70.638;2023-10-09T03:44:32;11.13;;;3.80;;
34060;SDS011;20336;-33.424;-70.638;2023-10-09T03:47:01;10.50;;;4.13;;
34060;SDS011;20336;-33.424;-70.638;2023-10-09T03:49:30;9.50;;;3.77;;
34060;SDS011;20336;-33.424;-70.638;2023-10-09T03:51:57;9.60;;;3.80;;
34060;SDS011;20336;-33.424;-70.638;2023-10-09T03:54:24;9.70;;;4.10;;
34060;SDS011;20336;-33.424;-70.638;2023-10-09T03:56:55;8.43;;;3.57;;
34060;SDS011;20336;-33.424;-70.638;2023-10-09T03:59:24;7.00;;;3.50;;
34060;SDS011;20336;-33.424;-70.638;2023-10-09T04:01:57;6.83;;;3.17;;
34060;SDS011;20336;-33.424;-70.638;2023-10-09T04:04:24;6.57;;;3.13;;
34060;SDS011;20336;-33.424;-70.638;2023-10-09T04:06:53;7.53;;;2.97;;
34060;SDS011;20336;-33.424;-70.638;2023-10-09T04:09:20;7.47;;;3.07;;
34060;SDS011;20336;-33.424;-70.638;2023-10-09T04:11:51;7.53;;;2.80;;
34060;SDS011;20336;-33.424;-70.638;2023-10-09T04:14:37;9.13;;;3.50;;
34060;SDS011;20336;-33.424;-70.638;2023-10-09T04:17:15;12.30;;;2.80;;
34060;SDS011;20336;-33.424;-70.638;2023-10-09T04:19:48;6.13;;;2.87;;
34060;SDS011;20336;-33.424;-70.638;2023-10-09T04:22:34;6.90;;;2.97;;
34060;SDS011;20336;-33.424;-70.638;2023-10-09T04:25:05;7.13;;;3.47;;
34060;SDS011;20336;-33.424;-70.638;2023-10-09T04:27:40;9.90;;;4.03;;
34060;SDS011;20336;-33.424;-70.638;2023-10-09T04:30:07;9.80;;;3.70;;
34060;SDS011;20336;-33.424;-70.638;2023-10-09T04:32:43;7.43;;;3.53;;
34060;SDS011;20336;-33.424;-70.638;2023-10-09T04:35:10;9.37;;;3.23;;
34060;SDS011;20336;-33.424;-70.638;2023-10-09T04:37:52;5.17;;;2.50;;
34060;SDS011;20336;-33.424;-70.638;2023-10-09T04:40:30;9.03;;;3.27;;
34060;SDS011;20336;-33.424;-70.638;2023-10-09T04:43:14;6.23;;;2.43;;
34060;SDS011;20336;-33.424;-70.638;2023-10-09T04:45:51;4.37;;;2.47;;
34060;SDS011;20336;-33.424;-70.638;2023-10-09T04:48:33;5.70;;;2.57;;
34060;SDS011;20336;-33.424;-70.638;2023-10-09T04:51:06;9.37;;;2.90;;
34060;SDS011;20336;-33.424;-70.638;2023-10-09T04:53:57;7.97;;;2.83;;
34060;SDS011;20336;-33.424;-70.638;2023-10-09T04:56:39;7.13;;;2.83;;
34060;SDS011;20336;-33.424;-70.638;2023-10-09T04:59:18;5.10;;;2.27;;
34060;SDS011;20336;-33.424;-70.638;2023-10-09T05:01:53;8.33;;;3.20;;
34060;SDS011;20336;-33.424;-70.638;2023-10-09T05:04:29;7.07;;;3.03;;
34060;SDS011;20336;-33.424;-70.638;2023-10-09T05:07:02;7.63;;;2.50;;
34060;SDS011;20336;-33.424;-70.638;2023-10-09T05:09:51;8.73;;;3.20;;
34060;SDS011;20336;-33.424;-70.638;2023-10-09T05:12:21;8.63;;;2.67;;
34060;SDS011;20336;-33.424;-70.638;2023-10-09T05:14:53;5.60;;;3.03;;
34060;SDS011;20336;-33.424;-70.638;2023-10-09T05:17:35;6.83;;;2.80;;
34060;SDS011;20336;-33.424;-70.638;2023-10-09T05:20:04;7.90;;;2.60;;
34060;SDS011;20336;-33.424;-70.638;2023-10-09T05:22:49;7.47;;;2.77;;
34060;SDS011;20336;-33.424;-70.638;2023-10-09T05:25:48;7.70;;;2.60;;
34060;SDS011;20336;-33.424;-70.638;2023-10-09T05:28:41;7.63;;;2.87;;
34060;SDS011;20336;-33.424;-70.638;2023-10-09T05:31:18;7.03;;;3.10;;
34060;SDS011;20336;-33.424;-70.638;2023-10-09T05:34:03;7.63;;;3.60;;
34060;SDS011;20336;-33.424;-70.638;2023-10-09T05:36:32;8.80;;;3.87;;
34060;SDS011;20336;-33.424;-70.638;2023-10-09T05:39:01;8.63;;;4.07;;
34060;SDS011;20336;-33.424;-70.638;2023-10-09T05:41:46;9.23;;;4.20;;
34060;SDS011;20336;-33.424;-70.638;2023-10-09T05:44:13;10.73;;;4.80;;
34060;SDS011;20336;-33.424;-70.638;2023-10-09T05:46:58;11.10;;;4.20;;
34060;SDS011;20336;-33.424;-70.638;2023-10-09T05:49:43;10.97;;;3.90;;
34060;SDS011;20336;-33.424;-70.638;2023-10-09T05:52:29;9.77;;;4.03;;
34060;SDS011;20336;-33.424;-70.638;2023-10-09T05:55:06;8.03;;;4.17;;
34060;SDS011;20336;-33.424;-70.638;2023-10-09T05:57:56;8.57;;;3.77;;
34060;SDS011;20336;-33.424;-70.638;2023-10-09T06:00:41;8.37;;;3.90;;
34060;SDS011;20336;-33.424;-70.638;2023-10-09T06:03:26;9.40;;;3.43;;
34060;SDS011;20336;-33.424;-70.638;2023-10-09T06:06:13;4.93;;;3.13;;
34060;SDS011;20336;-33.424;-70.638;2023-10-09T06:09:01;7.90;;;3.73;;
34060;SDS011;20336;-33.424;-70.638;2023-10-09T06:11:41;8.10;;;3.53;;
34060;SDS011;20336;-33.424;-70.638;2023-10-09T06:14:15;7.37;;;2.80;;
34060;SDS011;20336;-33.424;-70.638;2023-10-09T06:17:02;9.47;;;3.20;;
34060;SDS011;20336;-33.424;-70.638;2023-10-09T06:19:52;7.57;;;2.93;;
34060;SDS011;20336;-33.424;-70.638;2023-10-09T06:22:24;5.67;;;2.80;;
34060;SDS011;20336;-33.424;-70.638;2023-10-09T06:25:14;7.13;;;2.77;;
34060;SDS011;20336;-33.424;-70.638;2023-10-09T06:27:43;8.83;;;3.17;;
34060;SDS011;20336;-33.424;-70.638;2023-10-09T06:30:13;7.63;;;3.10;;
34060;SDS011;20336;-33.424;-70.638;2023-10-09T06:32:40;8.00;;;3.13;;
34060;SDS011;20336;-33.424;-70.638;2023-10-09T06:35:23;9.43;;;3.30;;
34060;SDS011;20336;-33.424;-70.638;2023-10-09T06:37:59;9.70;;;3.23;;
34060;SDS011;20336;-33.424;-70.638;2023-10-09T06:40:27;7.53;;;3.30;;
34060;SDS011;20336;-33.424;-70.638;2023-10-09T06:43:12;9.63;;;3.10;;
34060;SDS011;20336;-33.424;-70.638;2023-10-09T06:45:45;7.90;;;3.40;;
34060;SDS011;20336;-33.424;-70.638;2023-10-09T06:48:22;40.83;;;6.43;;
34060;SDS011;20336;-33.424;-70.638;2023-10-09T06:51:06;6.97;;;3.47;;
34060;SDS011;20336;-33.424;-70.638;2023-10-09T06:53:51;8.73;;;3.80;;
34060;SDS011;20336;-33.424;-70.638;2023-10-09T06:56:28;7.13;;;3.80;;
34060;SDS011;20336;-33.424;-70.638;2023-10-09T06:58:55;8.23;;;3.50;;
34060;SDS011;20336;-33.424;-70.638;2023-10-09T07:01:30;9.10;;;3.63;;
34060;SDS011;20336;-33.424;-70.638;2023-10-09T07:04:10;8.10;;;3.77;;
34060;SDS011;20336;-33.424;-70.638;2023-10-09T07:07:06;7.33;;;3.40;;
34060;SDS011;20336;-33.424;-70.638;2023-10-09T07:09:35;7.37;;;3.00;;
34060;SDS011;20336;-33.424;-70.638;2023-10-09T07:12:09;7.73;;;3.17;;
34060;SDS011;20336;-33.424;-70.638;2023-10-09T07:14:40;8.03;;;3.37;;
34060;SDS011;20336;-33.424;-70.638;2023-10-09T07:17:07;7.30;;;3.27;;
34060;SDS011;20336;-33.424;-70.638;2023-10-09T07:19:41;12.03;;;3.27;;
34060;SDS011;20336;-33.424;-70.638;2023-10-09T07:22:09;9.47;;;3.30;;
34060;SDS011;20336;-33.424;-70.638;2023-10-09T07:27:38;8.33;;;3.40;;
34060;SDS011;20336;-33.424;-70.638;2023-10-09T07:30:12;11.60;;;2.80;;
34060;SDS011;20336;-33.424;-70.638;2023-10-09T07:32:58;6.07;;;2.80;;
34060;SDS011;20336;-33.424;-70.638;2023-10-09T07:35:46;5.67;;;3.10;;
34060;SDS011;20336;-33.424;-70.638;2023-10-09T07:38:16;6.43;;;3.30;;
34060;SDS011;20336;-33.424;-70.638;2023-10-09T07:40:48;9.60;;;3.40;;
34060;SDS011;20336;-33.424;-70.638;2023-10-09T07:43:38;7.13;;;3.33;;
34060;SDS011;20336;-33.424;-70.638;2023-10-09T07:46:11;9.10;;;3.23;;
34060;SDS011;20336;-33.424;-70.638;2023-10-09T07:48:57;6.87;;;3.10;;
34060;SDS011;20336;-33.424;-70.638;2023-10-09T07:51:26;12.27;;;3.90;;
34060;SDS011;20336;-33.424;-70.638;2023-10-09T07:53:59;5.10;;;2.87;;
34060;SDS011;20336;-33.424;-70.638;2023-10-09T07:56:35;7.13;;;3.03;;
34060;SDS011;20336;-33.424;-70.638;2023-10-09T07:59:11;9.17;;;3.90;;
34060;SDS011;20336;-33.424;-70.638;2023-10-09T08:01:46;11.93;;;3.73;;
34060;SDS011;20336;-33.424;-70.638;2023-10-09T08:04:20;7.80;;;3.30;;
34060;SDS011;20336;-33.424;-70.638;2023-10-09T08:07:10;9.30;;;3.07;;
34060;SDS011;20336;-33.424;-70.638;2023-10-09T08:10:05;4.50;;;2.47;;
34060;SDS011;20336;-33.424;-70.638;2023-10-09T08:12:44;8.87;;;2.90;;
34060;SDS011;20336;-33.424;-70.638;2023-10-09T08:15:14;7.00;;;2.93;;
34060;SDS011;20336;-33.424;-70.638;2023-10-09T08:17:45;5.90;;;2.80;;
34060;SDS011;20336;-33.424;-70.638;2023-10-09T08:20:29;5.47;;;2.80;;
34060;SDS011;20336;-33.424;-70.638;2023-10-09T08:23:14;9.40;;;3.40;;
34060;SDS011;20336;-33.424;-70.638;2023-10-09T08:26:08;7.10;;;3.00;;
34060;SDS011;20336;-33.424;-70.638;2023-10-09T08:28:39;6.73;;;2.90;;
34060;SDS011;20336;-33.424;-70.638;2023-10-09T08:31:09;8.13;;;2.87;;
34060;SDS011;20336;-33.424;-70.638;2023-10-09T08:33:47;5.30;;;3.03;;
34060;SDS011;20336;-33.424;-70.638;2023-10-09T08:36:24;11.50;;;3.20;;
34060;SDS011;20336;-33.424;-70.638;2023-10-09T08:39:04;7.50;;;2.80;;
34060;SDS011;20336;-33.424;-70.638;2023-10-09T08:41:54;5.27;;;3.10;;
34060;SDS011;20336;-33.424;-70.638;2023-10-09T08:44:25;7.10;;;3.10;;
34060;SDS011;20336;-33.424;-70.638;2023-10-09T08:46:59;5.90;;;2.70;;
34060;SDS011;20336;-33.424;-70.638;2023-10-09T08:49:26;4.70;;;2.70;;
34060;SDS011;20336;-33.424;-70.638;2023-10-09T08:51:53;8.00;;;2.77;;
34060;SDS011;20336;-33.424;-70.638;2023-10-09T08:54:21;9.63;;;2.50;;
34060;SDS011;20336;-33.424;-70.638;2023-10-09T08:56:48;8.03;;;3.00;;
34060;SDS011;20336;-33.424;-70.638;2023-10-09T08:59:15;6.70;;;3.07;;
34060;SDS011;20336;-33.424;-70.638;2023-10-09T09:01:46;7.50;;;2.67;;
34060;SDS011;20336;-33.424;-70.638;2023-10-09T09:07:22;5.97;;;2.73;;
34060;SDS011;20336;-33.424;-70.638;2023-10-09T09:09:57;9.10;;;3.00;;
34060;SDS011;20336;-33.424;-70.638;2023-10-09T09:12:29;9.37;;;3.37;;
34060;SDS011;20336;-33.424;-70.638;2023-10-09T09:15:03;10.83;;;2.90;;
34060;SDS011;20336;-33.424;-70.638;2023-10-09T09:17:32;10.37;;;3.07;;
34060;SDS011;20336;-33.424;-70.638;2023-10-09T09:20:06;6.50;;;3.07;;
34060;SDS011;20336;-33.424;-70.638;2023-10-09T09:22:55;9.53;;;3.60;;
34060;SDS011;20336;-33.424;-70.638;2023-10-09T09:25:23;11.27;;;3.43;;
34060;SDS011;20336;-33.424;-70.638;2023-10-09T09:27:50;6.70;;;3.00;;
34060;SDS011;20336;-33.424;-70.638;2023-10-09T09:30:25;5.47;;;3.27;;
34060;SDS011;20336;-33.424;-70.638;2023-10-09T09:33:00;5.80;;;3.13;;
34060;SDS011;20336;-33.424;-70.638;2023-10-09T09:38:25;8.77;;;3.40;;
34060;SDS011;20336;-33.424;-70.638;2023-10-09T09:40:56;7.23;;;3.40;;
34060;SDS011;20336;-33.424;-70.638;2023-10-09T09:43:28;8.33;;;3.10;;
34060;SDS011;20336;-33.424;-70.638;2023-10-09T09:45:56;7.67;;;2.87;;
34060;SDS011;20336;-33.424;-70.638;2023-10-09T09:48:23;6.63;;;3.80;;
34060;SDS011;20336;-33.424;-70.638;2023-10-09T09:50:52;8.03;;;3.57;;
34060;SDS011;20336;-33.424;-70.638;2023-10-09T09:53:19;7.33;;;3.20;;
34060;SDS011;20336;-33.424;-70.638;2023-10-09T09:55:52;10.43;;;4.00;;
34060;SDS011;20336;-33.424;-70.638;2023-10-09T09:58:23;8.10;;;3.43;;
34060;SDS011;20336;-33.424;-70.638;2023-10-09T10:00:53;9.43;;;3.90;;
34060;SDS011;20336;-33.424;-70.638;2023-10-09T10:05:53;9.87;;;4.20;;
34060;SDS011;20336;-33.424;-70.638;2023-10-09T10:08:22;9.13;;;3.57;;
34060;SDS011;20336;-33.424;-70.638;2023-10-09T10:10:59;10.43;;;4.00;;
34060;SDS011;20336;-33.424;-70.638;2023-10-09T10:16:09;7.20;;;3.90;;
34060;SDS011;20336;-33.424;-70.638;2023-10-09T10:18:52;7.57;;;3.83;;
34060;SDS011;20336;-33.424;-70.638;2023-10-09T10:21:33;7.70;;;3.80;;
34060;SDS011;20336;-33.424;-70.638;2023-10-09T10:27:17;5.87;;;3.33;;
34060;SDS011;20336;-33.424;-70.638;2023-10-09T10:35:19;6.10;;;3.47;;
34060;SDS011;20336;-33.424;-70.638;2023-10-09T10:38:02;10.67;;;3.77;;
34060;SDS011;20336;-33.424;-70.638;2023-10-09T10:40:39;11.00;;;3.50;;
34060;SDS011;20336;-33.424;-70.638;2023-10-09T10:43:17;9.33;;;3.57;;
34060;SDS011;20336;-33.424;-70.638;2023-10-09T10:46:04;14.37;;;4.10;;
34060;SDS011;20336;-33.424;-70.638;2023-10-09T10:48:39;7.50;;;3.53;;
34060;SDS011;20336;-33.424;-70.638;2023-10-09T10:51:13;7.13;;;3.80;;
34060;SDS011;20336;-33.424;-70.638;2023-10-09T10:53:53;7.30;;;3.50;;
34060;SDS011;20336;-33.424;-70.638;2023-10-09T10:56:23;7.20;;;3.60;;
34060;SDS011;20336;-33.424;-70.638;2023-10-09T10:59:01;5.83;;;3.20;;
34060;SDS011;20336;-33.424;-70.638;2023-10-09T11:01:31;7.90;;;3.30;;
34060;SDS011;20336;-33.424;-70.638;2023-10-09T11:04:16;8.33;;;3.43;;
34060;SDS011;20336;-33.424;-70.638;2023-10-09T11:06:59;5.87;;;3.33;;
34060;SDS011;20336;-33.424;-70.638;2023-10-09T11:09:48;9.23;;;3.30;;
34060;SDS011;20336;-33.424;-70.638;2023-10-09T11:12:51;7.90;;;3.10;;
34060;SDS011;20336;-33.424;-70.638;2023-10-09T11:15:17;7.57;;;3.30;;
34060;SDS011;20336;-33.424;-70.638;2023-10-09T11:18:03;9.00;;;3.60;;
34060;SDS011;20336;-33.424;-70.638;2023-10-09T11:20:56;7.67;;;3.40;;
34060;SDS011;20336;-33.424;-70.638;2023-10-09T11:23:30;8.73;;;3.77;;
34060;SDS011;20336;-33.424;-70.638;2023-10-09T11:26:01;10.57;;;3.50;;
34060;SDS011;20336;-33.424;-70.638;2023-10-09T11:28:46;5.53;;;3.17;;
34060;SDS011;20336;-33.424;-70.638;2023-10-09T11:31:23;11.73;;;4.00;;
34060;SDS011;20336;-33.424;-70.638;2023-10-09T11:33:50;6.00;;;3.10;;
34060;SDS011;20336;-33.424;-70.638;2023-10-09T11:36:18;6.47;;;3.40;;
34060;SDS011;20336;-33.424;-70.638;2023-10-09T11:38:55;6.33;;;3.10;;
34060;SDS011;20336;-33.424;-70.638;2023-10-09T11:41:42;9.43;;;4.17;;
34060;SDS011;20336;-33.424;-70.638;2023-10-09T11:44:10;8.63;;;3.33;;
34060;SDS011;20336;-33.424;-70.638;2023-10-09T11:47:02;7.40;;;3.80;;
34060;SDS011;20336;-33.424;-70.638;2023-10-09T11:50:14;8.37;;;3.60;;
34060;SDS011;20336;-33.424;-70.638;2023-10-09T11:52:54;7.27;;;3.73;;
34060;SDS011;20336;-33.424;-70.638;2023-10-09T11:55:41;11.20;;;4.20;;
34060;SDS011;20336;-33.424;-70.638;2023-10-09T11:58:08;12.73;;;4.90;;
34060;SDS011;20336;-33.424;-70.638;2023-10-09T12:00:35;8.77;;;4.30;;
34060;SDS011;20336;-33.424;-70.638;2023-10-09T12:03:11;8.47;;;3.37;;
34060;SDS011;20336;-33.424;-70.638;2023-10-09T12:05:40;8.10;;;3.90;;
34060;SDS011;20336;-33.424;-70.638;2023-10-09T12:08:11;13.77;;;4.30;;
34060;SDS011;20336;-33.424;-70.638;2023-10-09T12:10:41;7.70;;;3.60;;
34060;SDS011;20336;-33.424;-70.638;2023-10-09T12:13:22;15.63;;;4.37;;
34060;SDS011;20336;-33.424;-70.638;2023-10-09T12:15:52;10.67;;;4.13;;
34060;SDS011;20336;-33.424;-70.638;2023-10-09T12:18:20;7.67;;;4.03;;
34060;SDS011;20336;-33.424;-70.638;2023-10-09T12:20:49;7.40;;;3.83;;
34060;SDS011;20336;-33.424;-70.638;2023-10-09T12:23:20;10.60;;;3.90;;
34060;SDS011;20336;-33.424;-70.638;2023-10-09T12:25:50;9.40;;;4.20;;
34060;SDS011;20336;-33.424;-70.638;2023-10-09T12:28:22;9.83;;;4.40;;
34060;SDS011;20336;-33.424;-70.638;2023-10-09T12:30:49;10.93;;;3.47;;
34060;SDS011;20336;-33.424;-70.638;2023-10-09T12:33:20;8.93;;;3.77;;
34060;SDS011;20336;-33.424;-70.638;2023-10-09T12:35:53;10.67;;;4.33;;
34060;SDS011;20336;-33.424;-70.638;2023-10-09T12:38:27;12.47;;;4.30;;
34060;SDS011;20336;-33.424;-70.638;2023-10-09T12:44:10;8.83;;;4.30;;
34060;SDS011;20336;-33.424;-70.638;2023-10-09T12:46:43;13.37;;;4.43;;
34060;SDS011;20336;-33.424;-70.638;2023-10-09T12:49:20;7.53;;;3.90;;
34060;SDS011;20336;-33.424;-70.638;2023-10-09T12:51:55;10.50;;;4.03;;
34060;SDS011;20336;-33.424;-70.638;2023-10-09T12:54:25;12.23;;;4.53;;
34060;SDS011;20336;-33.424;-70.638;2023-10-09T12:56:56;12.03;;;3.70;;
34060;SDS011;20336;-33.424;-70.638;2023-10-09T12:59:24;10.83;;;3.90;;
34060;SDS011;20336;-33.424;-70.638;2023-10-09T13:01:51;15.15;;;3.97;;
34060;SDS011;20336;-33.424;-70.638;2023-10-09T13:04:23;7.38;;;4.05;;
34060;SDS011;20336;-33.424;-70.638;2023-10-09T13:06:57;6.70;;;4.07;;
34060;SDS011;20336;-33.424;-70.638;2023-10-09T13:09:29;8.93;;;4.07;;
34060;SDS011;20336;-33.424;-70.638;2023-10-09T13:12:08;11.80;;;5.35;;
34060;SDS011;20336;-33.424;-70.638;2023-10-09T13:14:43;10.95;;;5.10;;
34060;SDS011;20336;-33.424;-70.638;2023-10-09T13:17:11;10.70;;;4.68;;
34060;SDS011;20336;-33.424;-70.638;2023-10-09T13:19:38;10.85;;;5.30;;
34060;SDS011;20336;-33.424;-70.638;2023-10-09T13:22:05;11.40;;;5.13;;
34060;SDS011;20336;-33.424;-70.638;2023-10-09T13:24:38;11.23;;;4.80;;
34060;SDS011;20336;-33.424;-70.638;2023-10-09T13:27:05;7.35;;;4.78;;
34060;SDS011;20336;-33.424;-70.638;2023-10-09T13:29:36;10.88;;;5.47;;
34060;SDS011;20336;-33.424;-70.638;2023-10-09T13:32:06;11.23;;;5.25;;
34060;SDS011;20336;-33.424;-70.638;2023-10-09T13:34:40;15.27;;;4.72;;
34060;SDS011;20336;-33.424;-70.638;2023-10-09T13:37:11;12.68;;;5.20;;
34060;SDS011;20336;-33.424;-70.638;2023-10-09T13:39:39;15.65;;;5.95;;
34060;SDS011;20336;-33.424;-70.638;2023-10-09T13:42:17;19.13;;;5.95;;
34060;SDS011;20336;-33.424;-70.638;2023-10-09T13:44:44;23.48;;;6.95;;
34060;SDS011;20336;-33.424;-70.638;2023-10-09T13:47:14;14.55;;;7.35;;
34060;SDS011;20336;-33.424;-70.638;2023-10-09T13:49:50;15.40;;;7.70;;
34060;SDS011;20336;-33.424;-70.638;2023-10-09T13:52:19;11.77;;;6.63;;
34060;SDS011;20336;-33.424;-70.638;2023-10-09T13:54:47;17.63;;;7.07;;
34060;SDS011;20336;-33.424;-70.638;2023-10-09T13:57:18;19.15;;;7.32;;
34060;SDS011;20336;-33.424;-70.638;2023-10-09T13:59:47;18.05;;;8.00;;
34060;SDS011;20336;-33.424;-70.638;2023-10-09T14:02:15;17.35;;;7.38;;
34060;SDS011;20336;-33.424;-70.638;2023-10-09T14:04:46;16.38;;;6.90;;
34060;SDS011;20336;-33.424;-70.638;2023-10-09T14:07:13;14.23;;;7.55;;
34060;SDS011;20336;-33.424;-70.638;2023-10-09T14:09:45;18.60;;;7.43;;
34060;SDS011;20336;-33.424;-70.638;2023-10-09T14:12:32;17.13;;;7.30;;
34060;SDS011;20336;-33.424;-70.638;2023-10-09T14:15:00;11.82;;;6.45;;
34060;SDS011;20336;-33.424;-70.638;2023-10-09T14:17:29;18.77;;;7.97;;
34060;SDS011;20336;-33.424;-70.638;2023-10-09T14:19:56;13.48;;;8.13;;
34060;SDS011;20336;-33.424;-70.638;2023-10-09T14:22:46;23.75;;;8.02;;
34060;SDS011;20336;-33.424;-70.638;2023-10-09T14:25:17;15.80;;;8.15;;
34060;SDS011;20336;-33.424;-70.638;2023-10-09T14:27:46;15.00;;;8.23;;
34060;SDS011;20336;-33.424;-70.638;2023-10-09T14:30:13;19.05;;;8.57;;
34060;SDS011;20336;-33.424;-70.638;2023-10-09T14:32:48;15.82;;;8.82;;
34060;SDS011;20336;-33.424;-70.638;2023-10-09T14:35:21;15.00;;;8.25;;
34060;SDS011;20336;-33.424;-70.638;2023-10-09T14:37:52;20.17;;;8.98;;
34060;SDS011;20336;-33.424;-70.638;2023-10-09T14:40:20;18.48;;;9.52;;
34060;SDS011;20336;-33.424;-70.638;2023-10-09T14:42:58;23.13;;;10.45;;
34060;SDS011;20336;-33.424;-70.638;2023-10-09T14:45:25;18.73;;;9.90;;
34060;SDS011;20336;-33.424;-70.638;2023-10-09T14:47:52;13.90;;;9.38;;
34060;SDS011;20336;-33.424;-70.638;2023-10-09T14:50:20;22.85;;;9.70;;
34060;SDS011;20336;-33.424;-70.638;2023-10-09T14:52:50;16.65;;;9.38;;
34060;SDS011;20336;-33.424;-70.638;2023-10-09T14:55:17;19.00;;;10.30;;
34060;SDS011;20336;-33.424;-70.638;2023-10-09T14:57:54;17.70;;;9.80;;
34060;SDS011;20336;-33.424;-70.638;2023-10-09T15:00:21;19.38;;;10.10;;
34060;SDS011;20336;-33.424;-70.638;2023-10-09T15:02:51;19.65;;;10.65;;
34060;SDS011;20336;-33.424;-70.638;2023-10-09T15:05:18;17.92;;;9.82;;
34060;SDS011;20336;-33.424;-70.638;2023-10-09T15:07:48;15.60;;;10.25;;
34060;SDS011;20336;-33.424;-70.638;2023-10-09T15:10:15;24.60;;;11.20;;
34060;SDS011;20336;-33.424;-70.638;2023-10-09T15:12:43;23.92;;;11.63;;